Terminal Aerodrome Forecast
Issued by NWS

Home | Current Version | Previous Version | Text Only | Print | Product List | Glossary Off
Versions: 1 2 3 4 5 6 7 8 9 10 11 12 13 14 15 16 17 18 19 20 21 22 23 24 25 26 27 28 29 30 31 32 33 34 35 36 37 38 39 40 41 42 43 44 45 46 47 48 49

000
FTUS43 KLOT 240909 AAA
TAFGYY
TAF AMD
KGYY 240909Z 2409/2506 17009KT P6SM BKN025
     FM241200 19010G15KT P6SM VCTS BKN020CB OVC025
      TEMPO 2412/2416 3SM TSRA OVC015CB
     FM241700 20011G18KT P6SM BKN015
     FM241900 21012G19KT P6SM BKN035
     FM250000 22008KT P6SM VCSH SCT035 BKN120 PROB30 2502/2506 3SM
      TSRA OVC025CB=

USA.gov is the U.S. government's official web portal to all federal, state and local government web resources and services.